Terminal Aerodrome Forecast
Issued by NWS

Home | Current Version | Previous Version | Text Only | Print | Product List | Glossary On
Versions: 1 2 3 4 5 6 7 8 9 10 11 12 13 14
314
FTUS46 KSTO 270546 AAA
TAFSCK
TAF AMD
KSCK 270546Z 2706/2806 28009KT P6SM VCSH OVC050
     FM270900 28008KT P6SM BKN025
     FM271400 27006KT P6SM OVC015
     FM272000 33015G20KT P6SM BKN030
      TEMPO 2721/2801 SCT040
     FM280200 32008KT P6SM SKC=

USA.gov is the U.S. government's official web portal to all federal, state and local government web resources and services.